sensor_id;sensor_type;location;lat;lon;timestamp;pressure;altitude;pressure_sealevel;temperature
76476;BMP280;65308;50.078;14.854;2023-11-21T00:00:57;98467.25;;;11.01
76476;BMP280;65308;50.078;14.854;2023-11-21T00:03:24;98470.97;;;10.80
76476;BMP280;65308;50.078;14.854;2023-11-21T00:05:53;98478.19;;;10.89
76476;BMP280;65308;50.078;14.854;2023-11-21T00:08:20;98474.47;;;10.86
76476;BMP280;65308;50.078;14.854;2023-11-21T00:10:46;98470.97;;;10.80
76476;BMP280;65308;50.078;14.854;2023-11-21T00:13:14;98475.13;;;10.81
76476;BMP280;65308;50.078;14.854;2023-11-21T00:15:42;98474.63;;;10.68
76476;BMP280;65308;50.078;14.854;2023-11-21T00:18:09;98474.63;;;10.68
76476;BMP280;65308;50.078;14.854;2023-11-21T00:20:36;98480.47;;;10.57
76476;BMP280;65308;50.078;14.854;2023-11-21T00:23:02;98474.94;;;10.60
76476;BMP280;65308;50.078;14.854;2023-11-21T00:25:29;98480.28;;;10.60
76476;BMP280;65308;50.078;14.854;2023-11-21T00:27:57;98480.47;;;10.81
76476;BMP280;65308;50.078;14.854;2023-11-21T00:30:23;98484.22;;;10.74
76476;BMP280;65308;50.078;14.854;2023-11-21T00:32:51;98477.41;;;10.73
76476;BMP280;65308;50.078;14.854;2023-11-21T00:35:18;98483.31;;;10.77
76476;BMP280;65308;50.078;14.854;2023-11-21T00:37:45;98482.75;;;10.73
76476;BMP280;65308;50.078;14.854;2023-11-21T00:40:15;98497.31;;;10.72
76476;BMP280;65308;50.078;14.854;2023-11-21T00:42:44;98498.19;;;10.78
76476;BMP280;65308;50.078;14.854;2023-11-21T00:45:12;98490.00;;;10.82
76476;BMP280;65308;50.078;14.854;2023-11-21T00:47:39;98480.88;;;10.89
76476;BMP280;65308;50.078;14.854;2023-11-21T00:50:09;98478.84;;;10.98
76476;BMP280;65308;50.078;14.854;2023-11-21T00:52:36;98474.91;;;10.94
76476;BMP280;65308;50.078;14.854;2023-11-21T00:55:03;98479.09;;;10.86
76476;BMP280;65308;50.078;14.854;2023-11-21T00:57:30;98489.25;;;10.81
76476;BMP280;65308;50.078;14.854;2023-11-21T00:59:57;98482.56;;;10.77
76476;BMP280;65308;50.078;14.854;2023-11-21T01:02:24;98487.69;;;10.75
76476;BMP280;65308;50.078;14.854;2023-11-21T01:04:51;98482.91;;;10.70
76476;BMP280;65308;50.078;14.854;2023-11-21T01:07:19;98484.34;;;10.56
76476;BMP280;65308;50.078;14.854;2023-11-21T01:09:47;98495.88;;;10.62
76476;BMP280;65308;50.078;14.854;2023-11-21T01:12:16;98491.75;;;10.61
76476;BMP280;65308;50.078;14.854;2023-11-21T01:14:44;98491.13;;;10.66
76476;BMP280;65308;50.078;14.854;2023-11-21T01:17:11;98498.53;;;10.71
76476;BMP280;65308;50.078;14.854;2023-11-21T01:19:38;98501.94;;;10.72
76476;BMP280;65308;50.078;14.854;2023-11-21T01:22:05;98499.72;;;10.70
76476;BMP280;65308;50.078;14.854;2023-11-21T01:24:33;98503.72;;;10.75
76476;BMP280;65308;50.078;14.854;2023-11-21T01:26:59;98512.94;;;10.74
76476;BMP280;65308;50.078;14.854;2023-11-21T01:29:26;98503.63;;;10.84
76476;BMP280;65308;50.078;14.854;2023-11-21T01:31:53;98501.59;;;10.79
76476;BMP280;65308;50.078;14.854;2023-11-21T01:34:20;98499.50;;;10.83
76476;BMP280;65308;50.078;14.854;2023-11-21T01:36:47;98500.22;;;10.83
76476;BMP280;65308;50.078;14.854;2023-11-21T01:39:14;98504.97;;;10.89
76476;BMP280;65308;50.078;14.854;2023-11-21T01:41:43;98502.03;;;10.87
76476;BMP280;65308;50.078;14.854;2023-11-21T01:44:10;98491.25;;;10.96
76476;BMP280;65308;50.078;14.854;2023-11-21T01:46:38;98501.72;;;11.08
76476;BMP280;65308;50.078;14.854;2023-11-21T01:49:05;98494.72;;;11.11
76476;BMP280;65308;50.078;14.854;2023-11-21T01:51:33;98495.28;;;11.15
76476;BMP280;65308;50.078;14.854;2023-11-21T01:54:00;98493.63;;;11.18
76476;BMP280;65308;50.078;14.854;2023-11-21T01:56:28;98496.94;;;11.13
76476;BMP280;65308;50.078;14.854;2023-11-21T01:58:58;98497.00;;;11.03
76476;BMP280;65308;50.078;14.854;2023-11-21T02:01:24;98506.13;;;10.97
76476;BMP280;65308;50.078;14.854;2023-11-21T02:03:52;98509.19;;;10.80
76476;BMP280;65308;50.078;14.854;2023-11-21T02:06:21;98511.66;;;10.84
76476;BMP280;65308;50.078;14.854;2023-11-21T02:08:50;98512.16;;;10.82
76476;BMP280;65308;50.078;14.854;2023-11-21T02:11:17;98512.59;;;10.81
76476;BMP280;65308;50.078;14.854;2023-11-21T02:13:44;98508.16;;;10.78
76476;BMP280;65308;50.078;14.854;2023-11-21T02:16:14;98500.47;;;10.71
76476;BMP280;65308;50.078;14.854;2023-11-21T02:18:41;98505.91;;;10.76
76476;BMP280;65308;50.078;14.854;2023-11-21T02:21:08;98498.19;;;10.78
76476;BMP280;65308;50.078;14.854;2023-11-21T02:23:37;98500.13;;;10.78
76476;BMP280;65308;50.078;14.854;2023-11-21T02:26:07;98506.94;;;10.79
76476;BMP280;65308;50.078;14.854;2023-11-21T02:28:35;98501.47;;;10.82
76476;BMP280;65308;50.078;14.854;2023-11-21T02:31:02;98491.56;;;10.65
76476;BMP280;65308;50.078;14.854;2023-11-21T02:33:30;98499.16;;;10.66
76476;BMP280;65308;50.078;14.854;2023-11-21T02:35:59;98495.91;;;10.53
76476;BMP280;65308;50.078;14.854;2023-11-21T02:38:26;98493.84;;;10.57
76476;BMP280;65308;50.078;14.854;2023-11-21T02:40:56;98495.66;;;10.51
76476;BMP280;65308;50.078;14.854;2023-11-21T02:43:23;98497.78;;;10.38
76476;BMP280;65308;50.078;14.854;2023-11-21T02:45:50;98494.47;;;10.52
76476;BMP280;65308;50.078;14.854;2023-11-21T02:48:17;98499.81;;;10.52
76476;BMP280;65308;50.078;14.854;2023-11-21T02:50:44;98489.84;;;10.52
76476;BMP280;65308;50.078;14.854;2023-11-21T02:53:11;98490.97;;;10.27
76476;BMP280;65308;50.078;14.854;2023-11-21T02:55:38;98498.25;;;10.36
76476;BMP280;65308;50.078;14.854;2023-11-21T02:58:07;98484.78;;;10.21
76476;BMP280;65308;50.078;14.854;2023-11-21T03:00:34;98485.34;;;10.25
76476;BMP280;65308;50.078;14.854;2023-11-21T03:03:01;98493.06;;;10.23
76476;BMP280;65308;50.078;14.854;2023-11-21T03:05:29;98492.19;;;10.17
76476;BMP280;65308;50.078;14.854;2023-11-21T03:07:56;98488.69;;;10.11
76476;BMP280;65308;50.078;14.854;2023-11-21T03:10:23;98487.38;;;10.06
76476;BMP280;65308;50.078;14.854;2023-11-21T03:12:50;98484.94;;;10.08
76476;BMP280;65308;50.078;14.854;2023-11-21T03:15:19;98484.50;;;10.01
76476;BMP280;65308;50.078;14.854;2023-11-21T03:17:46;98479.81;;;9.86
76476;BMP280;65308;50.078;14.854;2023-11-21T03:20:14;98495.41;;;9.79
76476;BMP280;65308;50.078;14.854;2023-11-21T03:22:41;98486.34;;;9.85
76476;BMP280;65308;50.078;14.854;2023-11-21T03:25:09;98488.75;;;9.74
76476;BMP280;65308;50.078;14.854;2023-11-21T03:27:37;98490.19;;;9.75
76476;BMP280;65308;50.078;14.854;2023-11-21T03:30:05;98491.53;;;9.89
76476;BMP280;65308;50.078;14.854;2023-11-21T03:32:35;98488.13;;;9.88
76476;BMP280;65308;50.078;14.854;2023-11-21T03:35:02;98494.91;;;9.99
76476;BMP280;65308;50.078;14.854;2023-11-21T03:37:29;98498.94;;;10.03
76476;BMP280;65308;50.078;14.854;2023-11-21T03:39:56;98498.59;;;10.10
76476;BMP280;65308;50.078;14.854;2023-11-21T03:42:23;98496.56;;;10.05
76476;BMP280;65308;50.078;14.854;2023-11-21T03:44:50;98510.19;;;10.07
76476;BMP280;65308;50.078;14.854;2023-11-21T03:47:17;98515.97;;;10.15
76476;BMP280;65308;50.078;14.854;2023-11-21T03:49:46;98508.53;;;10.28
76476;BMP280;65308;50.078;14.854;2023-11-21T03:52:13;98515.91;;;10.43
76476;BMP280;65308;50.078;14.854;2023-11-21T03:54:40;98514.28;;;10.45
76476;BMP280;65308;50.078;14.854;2023-11-21T03:57:06;98515.88;;;10.52
76476;BMP280;65308;50.078;14.854;2023-11-21T03:59:34;98512.53;;;10.66
76476;BMP280;65308;50.078;14.854;2023-11-21T04:02:01;98520.22;;;10.73
76476;BMP280;65308;50.078;14.854;2023-11-21T04:04:28;98512.66;;;10.72
76476;BMP280;65308;50.078;14.854;2023-11-21T04:06:57;98519.91;;;10.80
76476;BMP280;65308;50.078;14.854;2023-11-21T04:09:24;98517.34;;;10.77
76476;BMP280;65308;50.078;14.854;2023-11-21T04:11:51;98515.78;;;10.70
76476;BMP280;65308;50.078;14.854;2023-11-21T04:14:18;98518.25;;;10.50
76476;BMP280;65308;50.078;14.854;2023-11-21T04:16:45;98517.38;;;10.44
76476;BMP280;65308;50.078;14.854;2023-11-21T04:19:11;98518.28;;;10.41
76476;BMP280;65308;50.078;14.854;2023-11-21T04:21:40;98523.31;;;10.39
76476;BMP280;65308;50.078;14.854;2023-11-21T04:24:08;98521.72;;;10.32
76476;BMP280;65308;50.078;14.854;2023-11-21T04:26:35;98527.19;;;10.38
76476;BMP280;65308;50.078;14.854;2023-11-21T04:29:02;98526.06;;;10.20
76476;BMP280;65308;50.078;14.854;2023-11-21T04:31:29;98528.41;;;10.27
76476;BMP280;65308;50.078;14.854;2023-11-21T04:33:57;98534.69;;;10.15
76476;BMP280;65308;50.078;14.854;2023-11-21T04:36:30;98532.88;;;10.30
76476;BMP280;65308;50.078;14.854;2023-11-21T04:38:57;98534.53;;;10.37
76476;BMP280;65308;50.078;14.854;2023-11-21T04:41:26;98526.59;;;10.43
76476;BMP280;65308;50.078;14.854;2023-11-21T04:43:53;98533.16;;;10.42
76476;BMP280;65308;50.078;14.854;2023-11-21T04:46:20;98534.94;;;10.45
76476;BMP280;65308;50.078;14.854;2023-11-21T04:48:47;98535.53;;;10.40
76476;BMP280;65308;50.078;14.854;2023-11-21T04:51:13;98540.28;;;10.45
76476;BMP280;65308;50.078;14.854;2023-11-21T04:53:55;98536.09;;;10.44
76476;BMP280;65308;50.078;14.854;2023-11-21T04:56:26;98535.50;;;10.49
76476;BMP280;65308;50.078;14.854;2023-11-21T04:58:53;98541.28;;;10.47
76476;BMP280;65308;50.078;14.854;2023-11-21T05:01:20;98536.66;;;10.57
76476;BMP280;65308;50.078;14.854;2023-11-21T05:03:49;98541.19;;;10.42
76476;BMP280;65308;50.078;14.854;2023-11-21T05:06:17;98544.19;;;10.34
76476;BMP280;65308;50.078;14.854;2023-11-21T05:08:45;98540.56;;;10.38
76476;BMP280;65308;50.078;14.854;2023-11-21T05:11:23;98540.56;;;10.47
76476;BMP280;65308;50.078;14.854;2023-11-21T05:13:52;98539.47;;;10.53
76476;BMP280;65308;50.078;14.854;2023-11-21T05:16:19;98545.41;;;10.57
76476;BMP280;65308;50.078;14.854;2023-11-21T05:18:47;98544.34;;;10.64
76476;BMP280;65308;50.078;14.854;2023-11-21T05:21:15;98552.53;;;10.60
76476;BMP280;65308;50.078;14.854;2023-11-21T05:23:43;98548.97;;;10.64
76476;BMP280;65308;50.078;14.854;2023-11-21T05:26:09;98547.59;;;10.68
76476;BMP280;65308;50.078;14.854;2023-11-21T05:28:36;98544.75;;;10.72
76476;BMP280;65308;50.078;14.854;2023-11-21T05:31:05;98546.56;;;10.75
76476;BMP280;65308;50.078;14.854;2023-11-21T05:33:32;98556.78;;;10.76
76476;BMP280;65308;50.078;14.854;2023-11-21T05:36:03;98542.94;;;10.78
76476;BMP280;65308;50.078;14.854;2023-11-21T05:38:30;98549.94;;;10.75
76476;BMP280;65308;50.078;14.854;2023-11-21T05:40:55;98552.09;;;10.62
76476;BMP280;65308;50.078;14.854;2023-11-21T05:43:24;98549.69;;;10.64
76476;BMP280;65308;50.078;14.854;2023-11-21T05:45:50;98555.16;;;10.70
76476;BMP280;65308;50.078;14.854;2023-11-21T05:48:21;98548.97;;;10.64
76476;BMP280;65308;50.078;14.854;2023-11-21T05:50:48;98549.56;;;10.68
76476;BMP280;65308;50.078;14.854;2023-11-21T05:53:16;98555.50;;;10.63
76476;BMP280;65308;50.078;14.854;2023-11-21T05:55:42;98565.03;;;10.64
76476;BMP280;65308;50.078;14.854;2023-11-21T05:58:09;98560.41;;;10.64
76476;BMP280;65308;50.078;14.854;2023-11-21T06:00:37;98565.75;;;10.64
76476;BMP280;65308;50.078;14.854;2023-11-21T06:03:03;98571.56;;;10.63
76476;BMP280;65308;50.078;14.854;2023-11-21T06:05:32;98568.31;;;10.58
76476;BMP280;65308;50.078;14.854;2023-11-21T06:07:59;98577.66;;;10.63
76476;BMP280;65308;50.078;14.854;2023-11-21T06:10:30;98578.72;;;10.66
76476;BMP280;65308;50.078;14.854;2023-11-21T06:12:57;98579.25;;;10.70
76476;BMP280;65308;50.078;14.854;2023-11-21T06:15:24;98592.78;;;10.75
76476;BMP280;65308;50.078;14.854;2023-11-21T06:17:51;98596.34;;;10.72
76476;BMP280;65308;50.078;14.854;2023-11-21T06:20:28;98595.91;;;10.74
76476;BMP280;65308;50.078;14.854;2023-11-21T06:23:00;98605.16;;;10.73
76476;BMP280;65308;50.078;14.854;2023-11-21T06:25:29;98598.03;;;10.60
76476;BMP280;65308;50.078;14.854;2023-11-21T06:27:58;98599.06;;;10.63
76476;BMP280;65308;50.078;14.854;2023-11-21T06:30:25;98595.78;;;10.68
76476;BMP280;65308;50.078;14.854;2023-11-21T06:32:58;98597.25;;;10.69
76476;BMP280;65308;50.078;14.854;2023-11-21T06:35:25;98592.63;;;10.70
76476;BMP280;65308;50.078;14.854;2023-11-21T06:37:52;98592.19;;;10.71
76476;BMP280;65308;50.078;14.854;2023-11-21T06:40:21;98597.13;;;10.73
76476;BMP280;65308;50.078;14.854;2023-11-21T06:42:48;98603.47;;;10.75
76476;BMP280;65308;50.078;14.854;2023-11-21T06:45:15;98604.69;;;10.74
76476;BMP280;65308;50.078;14.854;2023-11-21T06:47:42;98605.25;;;10.78
76476;BMP280;65308;50.078;14.854;2023-11-21T06:50:10;98612.22;;;10.85
76476;BMP280;65308;50.078;14.854;2023-11-21T06:52:37;98616.50;;;10.92
76476;BMP280;65308;50.078;14.854;2023-11-21T06:55:04;98613.25;;;10.88
76476;BMP280;65308;50.078;14.854;2023-11-21T06:57:35;98611.47;;;10.84
76476;BMP280;65308;50.078;14.854;2023-11-21T07:00:02;98612.38;;;10.81
76476;BMP280;65308;50.078;14.854;2023-11-21T07:02:29;98609.16;;;10.68
76476;BMP280;65308;50.078;14.854;2023-11-21T07:04:56;98612.88;;;10.62
76476;BMP280;65308;50.078;14.854;2023-11-21T07:07:22;98617.66;;;10.67
76476;BMP280;65308;50.078;14.854;2023-11-21T07:09:49;98613.72;;;10.77
76476;BMP280;65308;50.078;14.854;2023-11-21T07:12:17;98614.66;;;10.74
76476;BMP280;65308;50.078;14.854;2023-11-21T07:14:45;98617.16;;;10.77
76476;BMP280;65308;50.078;14.854;2023-11-21T07:17:12;98618.50;;;10.82
76476;BMP280;65308;50.078;14.854;2023-11-21T07:19:38;98617.56;;;10.85
76476;BMP280;65308;50.078;14.854;2023-11-21T07:22:07;98627.22;;;10.92
76476;BMP280;65308;50.078;14.854;2023-11-21T07:24:34;98630.59;;;11.01
76476;BMP280;65308;50.078;14.854;2023-11-21T07:27:02;98623.88;;;11.06
76476;BMP280;65308;50.078;14.854;2023-11-21T07:29:29;98629.81;;;11.10
76476;BMP280;65308;50.078;14.854;2023-11-21T07:31:58;98632.50;;;11.10
76476;BMP280;65308;50.078;14.854;2023-11-21T07:34:25;98632.94;;;11.08
76476;BMP280;65308;50.078;14.854;2023-11-21T07:36:52;98646.16;;;11.12
76476;BMP280;65308;50.078;14.854;2023-11-21T07:39:18;98643.91;;;11.20
76476;BMP280;65308;50.078;14.854;2023-11-21T07:41:46;98641.50;;;11.22
76476;BMP280;65308;50.078;14.854;2023-11-21T07:44:15;98646.66;;;11.35
76476;BMP280;65308;50.078;14.854;2023-11-21T07:46:43;98653.72;;;11.47
76476;BMP280;65308;50.078;14.854;2023-11-21T07:49:11;98653.53;;;11.50
76476;BMP280;65308;50.078;14.854;2023-11-21T07:51:40;98650.81;;;11.60
76476;BMP280;65308;50.078;14.854;2023-11-21T07:54:08;98648.25;;;11.65
76476;BMP280;65308;50.078;14.854;2023-11-21T07:56:43;98652.97;;;11.70
76476;BMP280;65308;50.078;14.854;2023-11-21T07:59:11;98651.72;;;11.80
76476;BMP280;65308;50.078;14.854;2023-11-21T08:01:38;98649.59;;;11.85
76476;BMP280;65308;50.078;14.854;2023-11-21T08:04:05;98643.03;;;11.86
76476;BMP280;65308;50.078;14.854;2023-11-21T08:06:35;98647.00;;;11.90
76476;BMP280;65308;50.078;14.854;2023-11-21T08:09:02;98643.78;;;12.16
76476;BMP280;65308;50.078;14.854;2023-11-21T08:11:29;98645.59;;;12.34
76476;BMP280;65308;50.078;14.854;2023-11-21T08:13:58;98637.22;;;12.61
76476;BMP280;65308;50.078;14.854;2023-11-21T08:16:25;98644.59;;;12.81
76476;BMP280;65308;50.078;14.854;2023-11-21T08:18:52;98649.41;;;12.92
76476;BMP280;65308;50.078;14.854;2023-11-21T08:21:23;98651.97;;;13.01
76476;BMP280;65308;50.078;14.854;2023-11-21T08:23:51;98651.97;;;13.01
76476;BMP280;65308;50.078;14.854;2023-11-21T08:26:19;98652.06;;;13.07
76476;BMP280;65308;50.078;14.854;2023-11-21T08:28:46;98660.41;;;12.94
76476;BMP280;65308;50.078;14.854;2023-11-21T08:31:13;98657.19;;;12.90
76476;BMP280;65308;50.078;14.854;2023-11-21T08:33:41;98652.19;;;12.83
76476;BMP280;65308;50.078;14.854;2023-11-21T08:36:08;98662.94;;;12.83
76476;BMP280;65308;50.078;14.854;2023-11-21T08:38:36;98668.59;;;12.85
76476;BMP280;65308;50.078;14.854;2023-11-21T08:41:06;98665.16;;;12.84
76476;BMP280;65308;50.078;14.854;2023-11-21T08:43:34;98657.78;;;12.79
76476;BMP280;65308;50.078;14.854;2023-11-21T08:46:05;98667.28;;;12.80
76476;BMP280;65308;50.078;14.854;2023-11-21T08:48:32;98666.53;;;12.80
76476;BMP280;65308;50.078;14.854;2023-11-21T08:50:59;98679.03;;;12.83
76476;BMP280;65308;50.078;14.854;2023-11-21T08:53:25;98681.16;;;12.93
76476;BMP280;65308;50.078;14.854;2023-11-21T08:55:52;98681.63;;;12.92
76476;BMP280;65308;50.078;14.854;2023-11-21T08:58:21;98682.47;;;12.98
76476;BMP280;65308;50.078;14.854;2023-11-21T09:00:48;98680.03;;;13.00
76476;BMP280;65308;50.078;14.854;2023-11-21T09:03:15;98680.31;;;13.02
76476;BMP280;65308;50.078;14.854;2023-11-21T09:05:42;98681.50;;;13.01
76476;BMP280;65308;50.078;14.854;2023-11-21T09:08:09;98685.16;;;12.98
76476;BMP280;65308;50.078;14.854;2023-11-21T09:10:36;98679.06;;;12.68
76476;BMP280;65308;50.078;14.854;2023-11-21T09:13:04;98691.81;;;12.73
76476;BMP280;65308;50.078;14.854;2023-11-21T09:15:35;98695.91;;;12.83
76476;BMP280;65308;50.078;14.854;2023-11-21T09:18:03;98687.47;;;12.90
76476;BMP280;65308;50.078;14.854;2023-11-21T09:20:30;98700.16;;;12.90
76476;BMP280;65308;50.078;14.854;2023-11-21T09:22:56;98704.13;;;12.94
76476;BMP280;65308;50.078;14.854;2023-11-21T09:25:23;98702.38;;;12.91
76476;BMP280;65308;50.078;14.854;2023-11-21T09:27:50;98708.84;;;12.99
76476;BMP280;65308;50.078;14.854;2023-11-21T09:30:17;98700.88;;;13.05
76476;BMP280;65308;50.078;14.854;2023-11-21T09:32:46;98700.22;;;13.10
76476;BMP280;65308;50.078;14.854;2023-11-21T09:35:14;98703.75;;;13.16
76476;BMP280;65308;50.078;14.854;2023-11-21T09:37:41;98707.22;;;13.22
76476;BMP280;65308;50.078;14.854;2023-11-21T09:40:10;98714.13;;;13.29
76476;BMP280;65308;50.078;14.854;2023-11-21T09:42:39;98712.69;;;13.28
76476;BMP280;65308;50.078;14.854;2023-11-21T09:45:13;98708.13;;;13.34
76476;BMP280;65308;50.078;14.854;2023-11-21T09:47:43;98704.41;;;13.32
76476;BMP280;65308;50.078;14.854;2023-11-21T09:50:14;98707.78;;;13.26
76476;BMP280;65308;50.078;14.854;2023-11-21T09:52:49;98708.06;;;13.29
76476;BMP280;65308;50.078;14.854;2023-11-21T09:55:21;98708.59;;;13.33
76476;BMP280;65308;50.078;14.854;2023-11-21T09:57:49;98706.16;;;13.35
76476;BMP280;65308;50.078;14.854;2023-11-21T10:00:16;98718.13;;;13.34
76476;BMP280;65308;50.078;14.854;2023-11-21T10:02:46;98718.97;;;13.40
76476;BMP280;65308;50.078;14.854;2023-11-21T10:05:16;98714.50;;;13.37
76476;BMP280;65308;50.078;14.854;2023-11-21T10:07:45;98718.88;;;13.34
76476;BMP280;65308;50.078;14.854;2023-11-21T10:10:13;98723.22;;;13.32
76476;BMP280;65308;50.078;14.854;2023-11-21T10:12:43;98718.25;;;13.24
76476;BMP280;65308;50.078;14.854;2023-11-21T10:15:16;98720.47;;;13.26
76476;BMP280;65308;50.078;14.854;2023-11-21T10:17:44;98721.22;;;13.26
76476;BMP280;65308;50.078;14.854;2023-11-21T10:20:11;98725.09;;;13.25
76476;BMP280;65308;50.078;14.854;2023-11-21T10:22:41;98722.03;;;13.33
76476;BMP280;65308;50.078;14.854;2023-11-21T10:25:08;98723.81;;;13.41
76476;BMP280;65308;50.078;14.854;2023-11-21T10:27:36;98720.81;;;13.34
76476;BMP280;65308;50.078;14.854;2023-11-21T10:30:05;98722.94;;;13.30
76476;BMP280;65308;50.078;14.854;2023-11-21T10:32:33;98724.81;;;12.88
76476;BMP280;65308;50.078;14.854;2023-11-21T10:35:00;98725.34;;;12.77
76476;BMP280;65308;50.078;14.854;2023-11-21T10:37:31;98727.19;;;12.86
76476;BMP280;65308;50.078;14.854;2023-11-21T10:40:00;98718.34;;;12.65
76476;BMP280;65308;50.078;14.854;2023-11-21T10:42:26;98725.72;;;12.56
76476;BMP280;65308;50.078;14.854;2023-11-21T10:44:54;98727.41;;;12.53
76476;BMP280;65308;50.078;14.854;2023-11-21T10:47:21;98723.13;;;12.61
76476;BMP280;65308;50.078;14.854;2023-11-21T10:49:49;98720.72;;;12.48
76476;BMP280;65308;50.078;14.854;2023-11-21T10:52:19;98716.13;;;12.79
76476;BMP280;65308;50.078;14.854;2023-11-21T10:54:46;98712.41;;;12.91
76476;BMP280;65308;50.078;14.854;2023-11-21T10:57:18;98722.03;;;12.97
76476;BMP280;65308;50.078;14.854;2023-11-21T10:59:47;98718.50;;;12.76
76476;BMP280;65308;50.078;14.854;2023-11-21T11:02:21;98721.00;;;12.80
76476;BMP280;65308;50.078;14.854;2023-11-21T11:04:48;98717.41;;;12.53
76476;BMP280;65308;50.078;14.854;2023-11-21T11:07:19;98716.50;;;12.71
76476;BMP280;65308;50.078;14.854;2023-11-21T11:09:47;98715.16;;;12.67
76476;BMP280;65308;50.078;14.854;2023-11-21T11:12:16;98709.97;;;12.78
76476;BMP280;65308;50.078;14.854;2023-11-21T11:14:44;98712.00;;;12.68
76476;BMP280;65308;50.078;14.854;2023-11-21T11:17:12;98705.09;;;12.76
76476;BMP280;65308;50.078;14.854;2023-11-21T11:19:40;98706.19;;;12.85
76476;BMP280;65308;50.078;14.854;2023-11-21T11:22:18;98699.25;;;13.13
76476;BMP280;65308;50.078;14.854;2023-11-21T11:25:03;98692.59;;;13.44
76476;BMP280;65308;50.078;14.854;2023-11-21T11:27:44;98698.31;;;13.72
76476;BMP280;65308;50.078;14.854;2023-11-21T11:30:23;98698.91;;;13.82
76476;BMP280;65308;50.078;14.854;2023-11-21T11:33:00;98707.38;;;13.74
76476;BMP280;65308;50.078;14.854;2023-11-21T11:35:34;98711.28;;;13.94
76476;BMP280;65308;50.078;14.854;2023-11-21T11:38:01;98699.84;;;13.99
76476;BMP280;65308;50.078;14.854;2023-11-21T11:40:38;98707.06;;;14.13
76476;BMP280;65308;50.078;14.854;2023-11-21T11:43:07;98702.00;;;14.21
76476;BMP280;65308;50.078;14.854;2023-11-21T11:45:34;98702.75;;;14.21
76476;BMP280;65308;50.078;14.854;2023-11-21T11:48:06;98707.97;;;14.05
76476;BMP280;65308;50.078;14.854;2023-11-21T11:50:33;98704.81;;;13.86
76476;BMP280;65308;50.078;14.854;2023-11-21T11:53:12;98705.56;;;13.86
76476;BMP280;65308;50.078;14.854;2023-11-21T11:55:39;98700.91;;;13.87
76476;BMP280;65308;50.078;14.854;2023-11-21T11:58:08;98710.75;;;13.90
76476;BMP280;65308;50.078;14.854;2023-11-21T12:00:35;98712.22;;;13.91
76476;BMP280;65308;50.078;14.854;2023-11-21T12:03:07;98701.13;;;13.83
76476;BMP280;65308;50.078;14.854;2023-11-21T12:05:34;98705.44;;;13.75
76476;BMP280;65308;50.078;14.854;2023-11-21T12:08:05;98702.81;;;13.60
76476;BMP280;65308;50.078;14.854;2023-11-21T12:10:33;98705.44;;;13.34
76476;BMP280;65308;50.078;14.854;2023-11-21T12:13:02;98702.06;;;13.39
76476;BMP280;65308;50.078;14.854;2023-11-21T12:15:32;98699.31;;;13.34
76476;BMP280;65308;50.078;14.854;2023-11-21T12:17:59;98698.00;;;13.29
76476;BMP280;65308;50.078;14.854;2023-11-21T12:20:27;98702.34;;;13.06
76476;BMP280;65308;50.078;14.854;2023-11-21T12:22:55;98705.84;;;13.12
76476;BMP280;65308;50.078;14.854;2023-11-21T12:25:25;98700.78;;;12.99
76476;BMP280;65308;50.078;14.854;2023-11-21T12:27:55;98698.88;;;12.85
76476;BMP280;65308;50.078;14.854;2023-11-21T12:30:23;98711.94;;;12.77
76476;BMP280;65308;50.078;14.854;2023-11-21T12:32:57;98710.25;;;12.36
76476;BMP280;65308;50.078;14.854;2023-11-21T12:35:26;98701.00;;;12.37
76476;BMP280;65308;50.078;14.854;2023-11-21T12:37:55;98716.91;;;12.25
76476;BMP280;65308;50.078;14.854;2023-11-21T12:40:22;98708.41;;;12.42
76476;BMP280;65308;50.078;14.854;2023-11-21T12:42:51;98714.81;;;12.59
76476;BMP280;65308;50.078;14.854;2023-11-21T12:45:20;98714.81;;;12.59
76476;BMP280;65308;50.078;14.854;2023-11-21T12:47:47;98723.88;;;12.76
76476;BMP280;65308;50.078;14.854;2023-11-21T12:50:18;98723.16;;;12.76
76476;BMP280;65308;50.078;14.854;2023-11-21T12:52:50;98719.81;;;12.81
76476;BMP280;65308;50.078;14.854;2023-11-21T12:55:20;98722.00;;;12.83
76476;BMP280;65308;50.078;14.854;2023-11-21T12:57:48;98722.75;;;12.68
76476;BMP280;65308;50.078;14.854;2023-11-21T13:00:18;98719.34;;;12.68
76476;BMP280;65308;50.078;14.854;2023-11-21T13:02:53;98720.53;;;12.82
76476;BMP280;65308;50.078;14.854;2023-11-21T13:05:32;98729.16;;;12.86
76476;BMP280;65308;50.078;14.854;2023-11-21T13:08:01;98731.66;;;12.89
76476;BMP280;65308;50.078;14.854;2023-11-21T13:10:30;98728.69;;;13.02
76476;BMP280;65308;50.078;14.854;2023-11-21T13:12:58;98730.19;;;12.73
76476;BMP280;65308;50.078;14.854;2023-11-21T13:15:26;98736.19;;;12.68
76476;BMP280;65308;50.078;14.854;2023-11-21T13:17:53;98736.75;;;12.72
76476;BMP280;65308;50.078;14.854;2023-11-21T13:20:21;98744.97;;;12.54
76476;BMP280;65308;50.078;14.854;2023-11-21T13:22:52;98745.34;;;12.47
76476;BMP280;65308;50.078;14.854;2023-11-21T13:25:22;98740.97;;;12.20
76476;BMP280;65308;50.078;14.854;2023-11-21T13:27:49;98740.38;;;12.01
76476;BMP280;65308;50.078;14.854;2023-11-21T13:30:16;98743.63;;;12.05
76476;BMP280;65308;50.078;14.854;2023-11-21T13:32:44;98744.09;;;11.79
76476;BMP280;65308;50.078;14.854;2023-11-21T13:35:11;98754.69;;;11.74
76476;BMP280;65308;50.078;14.854;2023-11-21T13:37:52;98744.81;;;11.47
76476;BMP280;65308;50.078;14.854;2023-11-21T13:40:22;98752.63;;;11.26
76476;BMP280;65308;50.078;14.854;2023-11-21T13:42:51;98755.16;;;10.88
76476;BMP280;65308;50.078;14.854;2023-11-21T13:45:21;98760.69;;;10.47
76476;BMP280;65308;50.078;14.854;2023-11-21T13:47:49;98752.81;;;10.44
76476;BMP280;65308;50.078;14.854;2023-11-21T13:50:18;98763.78;;;10.27
76476;BMP280;65308;50.078;14.854;2023-11-21T13:52:48;98769.75;;;10.31
76476;BMP280;65308;50.078;14.854;2023-11-21T13:55:17;98763.22;;;10.32
76476;BMP280;65308;50.078;14.854;2023-11-21T13:57:45;98773.91;;;10.23
76476;BMP280;65308;50.078;14.854;2023-11-21T14:00:16;98778.19;;;10.02
76476;BMP280;65308;50.078;14.854;2023-11-21T14:02:56;98788.25;;;9.89